createdAt,value
2018-12-06T00:01:17.163Z,275.13
2018-12-06T00:03:46.153Z,289.00
2018-12-06T00:06:15.313Z,279.63
2018-12-06T00:08:45.588Z,280.30
2018-12-06T00:11:14.186Z,278.30
2018-12-06T00:13:43.045Z,286.07
2018-12-06T00:16:12.884Z,268.63
2018-12-06T00:18:41.610Z,257.50
2018-12-06T00:21:10.428Z,255.97
2018-12-06T00:23:38.909Z,265.00
2018-12-06T00:26:07.693Z,254.97
2018-12-06T00:28:36.207Z,260.00
2018-12-06T00:31:04.704Z,250.37
2018-12-06T00:33:33.299Z,249.20
2018-12-06T00:36:01.957Z,249.83
2018-12-06T00:38:30.521Z,259.37
2018-12-06T00:40:59.703Z,267.60
2018-12-06T00:43:28.471Z,279.77
2018-12-06T00:45:57.339Z,267.43
2018-12-06T00:48:26.579Z,262.70
2018-12-06T00:50:55.100Z,268.00
2018-12-06T00:53:23.694Z,260.40
2018-12-06T00:55:52.213Z,262.63
2018-12-06T00:58:20.713Z,309.73
2018-12-06T01:00:49.227Z,336.70
2018-12-06T01:03:17.921Z,304.83
2018-12-06T01:05:46.804Z,296.20
2018-12-06T01:08:15.436Z,295.20
2018-12-06T01:10:43.955Z,285.23
2018-12-06T01:13:12.485Z,275.97
2018-12-06T01:15:41.647Z,260.77
2018-12-06T01:18:10.108Z,269.07
2018-12-06T01:20:39.042Z,258.20
2018-12-06T01:23:09.659Z,265.47
2018-12-06T01:25:38.438Z,255.40
2018-12-06T01:28:06.909Z,262.03
2018-12-06T01:30:35.516Z,245.90
2018-12-06T01:33:04.020Z,242.93
2018-12-06T01:35:32.616Z,256.30
2018-12-06T01:38:01.094Z,239.83
2018-12-06T01:40:29.575Z,237.13
2018-12-06T01:42:58.089Z,227.63
2018-12-06T01:45:27.120Z,223.67
2018-12-06T01:47:55.765Z,245.73
2018-12-06T01:50:24.317Z,251.20
2018-12-06T01:52:52.801Z,241.83
2018-12-06T01:55:21.795Z,240.57
2018-12-06T01:57:51.254Z,250.70
2018-12-06T02:00:19.886Z,238.00
2018-12-06T02:02:48.465Z,225.80
2018-12-06T02:05:17.088Z,230.47
2018-12-06T02:07:45.565Z,240.07
2018-12-06T02:10:14.062Z,225.07
2018-12-06T02:12:43.056Z,226.87
2018-12-06T02:15:11.707Z,232.33
2018-12-06T02:17:40.597Z,223.53
2018-12-06T02:20:09.079Z,223.27
2018-12-06T02:22:37.596Z,205.17
2018-12-06T02:25:07.305Z,214.77
2018-12-06T02:27:35.773Z,224.03
2018-12-06T02:30:05.509Z,204.03
2018-12-06T02:32:34.180Z,205.47
2018-12-06T02:35:02.972Z,199.23
2018-12-06T02:37:32.735Z,201.87
2018-12-06T02:40:01.237Z,209.40
2018-12-06T02:42:30.428Z,219.17
2018-12-06T02:44:59.001Z,218.67
2018-12-06T02:47:27.485Z,220.00
2018-12-06T02:49:56.622Z,228.30
2018-12-06T02:52:25.623Z,237.90
2018-12-06T02:54:54.253Z,246.07
2018-12-06T02:57:23.047Z,237.13
2018-12-06T02:59:51.529Z,233.90
2018-12-06T03:02:20.073Z,235.37
2018-12-06T03:04:48.707Z,232.10
2018-12-06T03:07:17.185Z,238.93
2018-12-06T03:09:46.389Z,215.83
2018-12-06T03:12:14.936Z,216.53
2018-12-06T03:14:43.437Z,209.03
2018-12-06T03:17:11.985Z,199.50
2018-12-06T03:19:40.484Z,200.63
2018-12-06T03:22:08.947Z,190.83
2018-12-06T03:24:37.637Z,208.47
2018-12-06T03:27:06.133Z,209.53
2018-12-06T03:29:34.588Z,208.00
2018-12-06T03:32:03.217Z,214.93
2018-12-06T03:34:31.693Z,197.03
2018-12-06T03:37:00.174Z,196.37
2018-12-06T03:39:28.680Z,195.80
2018-12-06T03:41:57.204Z,196.20
2018-12-06T03:44:25.691Z,193.47
2018-12-06T03:46:54.197Z,185.47
2018-12-06T03:49:22.777Z,183.70
2018-12-06T03:51:51.257Z,193.07
2018-12-06T03:54:19.799Z,184.50
2018-12-06T03:56:48.300Z,188.27
2018-12-06T03:59:16.770Z,183.80
2018-12-06T04:01:45.253Z,178.50
2018-12-06T04:04:13.767Z,172.83
2018-12-06T04:06:42.226Z,189.37
2018-12-06T04:09:10.704Z,175.93
2018-12-06T04:11:39.193Z,173.83
2018-12-06T04:14:07.656Z,176.83
2018-12-06T04:16:36.220Z,176.07
2018-12-06T04:19:04.688Z,170.87
2018-12-06T04:21:33.181Z,185.37
2018-12-06T04:24:01.664Z,179.00
2018-12-06T04:26:30.315Z,172.13
2018-12-06T04:28:58.816Z,173.63
2018-12-06T04:31:27.256Z,188.90
2018-12-06T04:33:56.132Z,195.43
2018-12-06T04:36:24.611Z,188.63
2018-12-06T04:38:53.085Z,175.70
2018-12-06T04:41:21.851Z,161.10
2018-12-06T04:43:50.371Z,155.73
2018-12-06T04:46:18.881Z,146.03
2018-12-06T04:48:47.475Z,169.60
2018-12-06T04:51:15.972Z,184.00
2018-12-06T04:53:44.426Z,179.97
2018-12-06T04:56:12.877Z,167.17
2018-12-06T04:58:41.412Z,162.80
2018-12-06T05:01:09.850Z,142.53
2018-12-06T05:03:38.364Z,142.17
2018-12-06T05:06:06.949Z,131.17
2018-12-06T05:08:35.430Z,133.93
2018-12-06T05:11:03.880Z,129.30
2018-12-06T05:13:32.893Z,123.07
2018-12-06T05:16:01.428Z,132.23
2018-12-06T05:18:29.909Z,136.67
2018-12-06T05:20:58.356Z,134.37
2018-12-06T05:23:26.840Z,140.57
2018-12-06T05:25:55.319Z,112.93
2018-12-06T05:28:23.799Z,117.33
2018-12-06T05:30:52.236Z,120.20
2018-12-06T05:33:20.695Z,119.93
2018-12-06T05:35:49.140Z,131.50
2018-12-06T05:38:17.620Z,114.73
2018-12-06T05:40:46.059Z,114.67
2018-12-06T05:43:14.515Z,115.70
2018-12-06T05:45:46.014Z,91.90
2018-12-06T05:48:14.511Z,90.50
2018-12-06T05:50:42.940Z,85.37
2018-12-06T05:53:11.382Z,96.03
2018-12-06T05:55:39.823Z,97.43
2018-12-06T05:58:08.308Z,98.00
2018-12-06T06:00:36.739Z,100.57
2018-12-06T06:03:05.220Z,89.80
2018-12-06T06:05:33.687Z,93.87
2018-12-06T06:08:02.119Z,87.93
2018-12-06T06:10:30.605Z,85.60
2018-12-06T06:12:59.083Z,83.63
2018-12-06T06:15:27.683Z,84.13
2018-12-06T06:17:56.135Z,81.63
2018-12-06T06:20:24.571Z,75.77
2018-12-06T06:22:53.132Z,73.80
2018-12-06T06:25:21.577Z,76.33
2018-12-06T06:27:50.022Z,81.23
2018-12-06T06:30:18.475Z,73.30
2018-12-06T06:32:46.935Z,78.47
2018-12-06T06:35:15.395Z,67.07
2018-12-06T06:37:43.820Z,67.33
2018-12-06T06:40:12.252Z,64.17
2018-12-06T06:42:40.741Z,63.23
2018-12-06T06:45:09.235Z,61.30
2018-12-06T06:47:37.699Z,67.30
2018-12-06T06:50:06.380Z,88.03
2018-12-06T06:52:34.824Z,92.80
2018-12-06T06:55:03.443Z,74.10
2018-12-06T06:57:31.946Z,71.83
2018-12-06T07:00:00.388Z,62.30
2018-12-06T07:02:28.903Z,64.43
2018-12-06T07:04:57.368Z,71.23
2018-12-06T07:07:25.803Z,75.20
2018-12-06T07:09:54.251Z,66.47
2018-12-06T07:12:22.707Z,68.57
2018-12-06T07:14:51.165Z,63.53
2018-12-06T07:17:19.652Z,58.83
2018-12-06T07:19:48.088Z,63.43
2018-12-06T07:22:16.573Z,55.30
2018-12-06T07:24:45.048Z,60.57
2018-12-06T07:27:13.564Z,62.97
2018-12-06T07:29:42.024Z,59.27
2018-12-06T07:32:10.452Z,61.07
2018-12-06T07:34:38.950Z,65.20
2018-12-06T07:37:07.524Z,71.43
2018-12-06T07:39:35.964Z,69.17
2018-12-06T07:42:04.469Z,72.50
2018-12-06T07:44:32.913Z,86.30
2018-12-06T07:47:01.389Z,57.57
2018-12-06T07:49:29.859Z,60.37
2018-12-06T07:51:58.315Z,56.03
2018-12-06T07:54:26.920Z,55.87
2018-12-06T07:56:55.344Z,58.17
2018-12-06T07:59:23.791Z,44.87
2018-12-06T08:01:52.232Z,53.90
2018-12-06T08:04:21.383Z,64.20
2018-12-06T08:06:49.952Z,53.57
2018-12-06T08:09:18.391Z,53.67
2018-12-06T08:11:46.896Z,57.23
2018-12-06T08:14:15.316Z,61.77
2018-12-06T08:16:43.732Z,53.50
2018-12-06T08:19:13.890Z,63.03
2018-12-06T08:21:42.576Z,52.30
2018-12-06T08:24:11.015Z,65.33
2018-12-06T08:26:39.574Z,65.93
2018-12-06T08:29:08.068Z,60.37
2018-12-06T08:31:36.510Z,58.23
2018-12-06T08:34:06.319Z,77.10
2018-12-06T08:36:35.412Z,69.00
2018-12-06T08:39:06.461Z,79.23
2018-12-06T08:41:34.991Z,96.27
2018-12-06T08:44:03.604Z,71.47
2018-12-06T08:46:32.587Z,64.33
2018-12-06T08:49:03.144Z,62.67
2018-12-06T08:51:31.666Z,61.97
2018-12-06T08:54:00.169Z,64.63
2018-12-06T08:56:28.771Z,62.03
2018-12-06T08:58:57.354Z,60.67
2018-12-06T09:01:25.914Z,65.27
2018-12-06T09:03:54.628Z,68.53
2018-12-06T09:06:23.337Z,68.27
2018-12-06T09:08:52.029Z,60.83
2018-12-06T09:11:20.601Z,56.73
2018-12-06T09:13:49.258Z,62.83
2018-12-06T09:16:17.793Z,62.20
2018-12-06T09:18:46.355Z,67.60
2018-12-06T09:21:14.964Z,59.83
2018-12-06T09:23:43.625Z,65.07
2018-12-06T09:26:12.337Z,59.63
2018-12-06T09:28:41.583Z,61.03
2018-12-06T09:31:10.167Z,63.50
2018-12-06T09:33:50.090Z,62.93
2018-12-06T09:36:18.598Z,61.93
2018-12-06T09:38:47.192Z,59.77
2018-12-06T09:41:15.813Z,57.90
2018-12-06T09:43:44.321Z,58.87
2018-12-06T09:46:12.866Z,56.13
2018-12-06T09:48:41.391Z,57.40
2018-12-06T09:51:09.945Z,60.03
2018-12-06T09:53:38.615Z,60.93
2018-12-06T09:56:07.370Z,61.33
2018-12-06T09:58:36.088Z,56.30
2018-12-06T10:01:04.811Z,57.60
2018-12-06T10:03:33.546Z,64.90
2018-12-06T10:06:02.054Z,70.07
2018-12-06T10:08:30.613Z,80.23
2018-12-06T10:10:59.780Z,72.87
2018-12-06T10:13:28.326Z,68.27
2018-12-06T10:15:57.016Z,63.13
2018-12-06T10:18:25.540Z,61.77
2018-12-06T10:20:54.076Z,64.90
2018-12-06T10:23:22.591Z,60.93
2018-12-06T10:25:51.120Z,59.80
2018-12-06T10:28:19.646Z,58.60
2018-12-06T10:30:48.390Z,47.03
2018-12-06T10:33:16.980Z,49.83
2018-12-06T10:35:45.567Z,46.50
2018-12-06T10:38:14.357Z,48.13
2018-12-06T10:40:43.039Z,46.27
2018-12-06T10:43:11.840Z,46.63
2018-12-06T10:45:40.628Z,44.67
2018-12-06T10:48:09.250Z,50.57
2018-12-06T10:50:38.299Z,44.20
2018-12-06T10:53:06.794Z,41.10
2018-12-06T10:55:35.997Z,45.97
2018-12-06T10:58:04.580Z,38.50
2018-12-06T11:00:38.592Z,43.43
2018-12-06T11:03:16.261Z,42.63
2018-12-06T11:05:44.747Z,41.43
2018-12-06T11:08:13.350Z,40.70
2018-12-06T11:10:42.014Z,38.63
2018-12-06T11:13:10.956Z,38.57
2018-12-06T11:15:39.850Z,44.67
2018-12-06T11:18:08.327Z,38.03
2018-12-06T11:20:36.984Z,38.67
2018-12-06T11:23:05.466Z,39.37
2018-12-06T11:25:34.033Z,43.40
2018-12-06T11:28:02.718Z,42.73
2018-12-06T11:30:31.309Z,42.70
2018-12-06T11:32:59.757Z,38.97
2018-12-06T11:35:28.677Z,44.07
2018-12-06T11:37:57.150Z,40.40
2018-12-06T11:40:25.608Z,47.57
2018-12-06T11:42:54.133Z,47.77
2018-12-06T11:45:22.627Z,58.27
2018-12-06T11:47:51.086Z,52.27
2018-12-06T11:50:19.565Z,43.20
2018-12-06T11:52:48.019Z,37.87
2018-12-06T11:55:16.902Z,41.17
2018-12-06T11:57:45.468Z,45.00
2018-12-06T12:00:14.078Z,38.80
2018-12-06T12:02:42.565Z,42.93
2018-12-06T12:05:11.258Z,43.17
2018-12-06T12:07:39.775Z,45.97
2018-12-06T12:10:08.783Z,39.77
2018-12-06T12:12:37.451Z,44.20
2018-12-06T12:15:07.130Z,42.67
2018-12-06T12:17:35.599Z,41.70
2018-12-06T12:20:05.538Z,42.73
2018-12-06T12:22:34.140Z,44.60
2018-12-06T12:25:02.598Z,45.03
2018-12-06T12:27:31.096Z,48.30
2018-12-06T12:29:59.581Z,48.37
2018-12-06T12:32:28.662Z,46.60
2018-12-06T12:34:57.130Z,55.33
2018-12-06T12:37:25.706Z,61.00
2018-12-06T12:39:54.223Z,62.00
2018-12-06T12:42:22.873Z,56.67
2018-12-06T12:44:51.482Z,53.70
2018-12-06T12:47:20.292Z,67.60
2018-12-06T12:49:48.896Z,58.73
2018-12-06T12:52:17.402Z,72.07
2018-12-06T12:54:46.044Z,69.20
2018-12-06T12:57:14.566Z,63.37
2018-12-06T12:59:43.071Z,59.57
2018-12-06T13:02:11.556Z,55.73
2018-12-06T13:04:40.036Z,56.57
2018-12-06T13:07:13.955Z,54.67
2018-12-06T13:09:42.956Z,55.17
2018-12-06T13:12:11.655Z,64.17
2018-12-06T13:14:40.202Z,83.73
2018-12-06T13:17:08.716Z,60.17
2018-12-06T13:19:37.198Z,62.20
2018-12-06T13:22:05.700Z,65.53
2018-12-06T13:24:34.185Z,65.73
2018-12-06T13:27:02.763Z,65.13
2018-12-06T13:29:31.281Z,69.53
2018-12-06T13:31:59.785Z,67.80
2018-12-06T13:34:28.260Z,84.83
2018-12-06T13:36:56.793Z,78.77
2018-12-06T13:39:25.433Z,64.83
2018-12-06T13:41:53.889Z,71.93
2018-12-06T13:44:22.445Z,63.73
2018-12-06T13:46:51.209Z,63.80
2018-12-06T13:49:19.774Z,66.07
2018-12-06T13:51:48.376Z,65.50
2018-12-06T13:54:16.857Z,66.07
2018-12-06T13:56:45.345Z,65.70
2018-12-06T13:59:13.837Z,69.73
2018-12-06T14:01:42.910Z,62.80
2018-12-06T14:04:11.888Z,68.07
2018-12-06T14:06:40.388Z,70.43
2018-12-06T14:09:08.901Z,88.43
2018-12-06T14:11:37.964Z,85.37
2018-12-06T14:14:06.630Z,78.57
2018-12-06T14:16:35.094Z,92.87
2018-12-06T14:19:03.556Z,74.17
2018-12-06T14:21:32.009Z,71.83
2018-12-06T14:24:00.469Z,74.80
2018-12-06T14:26:29.048Z,75.30
2018-12-06T14:28:57.517Z,68.80
2018-12-06T14:31:26.036Z,76.20
2018-12-06T14:33:55.246Z,86.13
2018-12-06T14:36:23.756Z,94.20
2018-12-06T14:39:39.755Z,88.63
2018-12-06T14:42:08.476Z,80.27
2018-12-06T14:44:36.964Z,75.93
2018-12-06T14:47:05.726Z,69.67
2018-12-06T14:49:34.213Z,79.30
2018-12-06T14:52:03.396Z,71.50
2018-12-06T14:54:31.860Z,67.93
2018-12-06T14:57:00.359Z,64.37
2018-12-06T14:59:28.839Z,66.43
2018-12-06T15:01:57.371Z,72.80
2018-12-06T15:04:25.872Z,72.33
2018-12-06T15:06:54.397Z,77.50
2018-12-06T15:09:22.850Z,73.63
2018-12-06T15:11:51.314Z,73.57
2018-12-06T15:14:19.779Z,72.50
2018-12-06T15:16:48.311Z,72.23
2018-12-06T15:19:16.760Z,74.50
2018-12-06T15:21:45.243Z,71.87
2018-12-06T15:24:13.708Z,78.93
2018-12-06T15:26:42.368Z,73.47
2018-12-06T15:29:10.834Z,66.17
2018-12-06T15:31:39.297Z,73.53
2018-12-06T15:34:07.910Z,72.27
2018-12-06T15:36:36.744Z,72.60
2018-12-06T15:39:07.793Z,69.63
2018-12-06T15:41:36.422Z,79.00
2018-12-06T15:44:05.237Z,74.97
2018-12-06T15:46:33.684Z,76.67
2018-12-06T15:49:02.179Z,83.70
2018-12-06T15:51:30.779Z,77.00
2018-12-06T15:53:59.290Z,76.10
2018-12-06T15:56:27.764Z,81.00
2018-12-06T15:58:56.236Z,88.23
2018-12-06T16:01:25.042Z,105.27
2018-12-06T16:03:54.139Z,97.40
2018-12-06T16:06:22.604Z,101.17
2018-12-06T16:08:51.220Z,129.23
2018-12-06T16:11:19.708Z,129.67
2018-12-06T16:13:48.208Z,142.70
2018-12-06T16:16:16.696Z,171.77
2018-12-06T16:18:45.235Z,217.33
2018-12-06T16:21:13.752Z,201.77
2018-12-06T16:23:43.004Z,237.70
2018-12-06T16:26:11.514Z,265.60
2018-12-06T16:28:40.148Z,272.33
2018-12-06T16:31:08.708Z,296.20
2018-12-06T16:33:37.198Z,161.50
2018-12-06T16:36:05.788Z,140.90
2018-12-06T16:38:34.305Z,134.20
2018-12-06T16:41:03.314Z,129.40
2018-12-06T16:43:31.788Z,134.50
2018-12-06T16:46:00.264Z,134.87
2018-12-06T16:48:28.768Z,131.57
2018-12-06T16:50:58.287Z,129.60
2018-12-06T16:53:26.793Z,124.17
2018-12-06T16:55:55.327Z,124.10
2018-12-06T16:58:23.877Z,123.67
2018-12-06T17:00:52.622Z,115.17
2018-12-06T17:03:21.115Z,123.80
2018-12-06T17:05:49.621Z,112.70
2018-12-06T17:08:18.082Z,119.33
2018-12-06T17:10:46.534Z,120.33
2018-12-06T17:13:15.544Z,110.77
2018-12-06T17:15:44.036Z,112.93
2018-12-06T17:18:12.880Z,132.20
2018-12-06T17:20:41.344Z,147.33
2018-12-06T17:23:09.850Z,136.33
2018-12-06T17:25:38.319Z,161.23
2018-12-06T17:28:07.145Z,193.80
2018-12-06T17:30:35.656Z,228.90
2018-12-06T17:33:04.119Z,222.47
2018-12-06T17:35:32.890Z,188.67
2018-12-06T17:38:01.778Z,186.70
2018-12-06T17:40:30.333Z,184.93
2018-12-06T17:42:58.870Z,166.90
2018-12-06T17:45:27.495Z,149.43
2018-12-06T17:47:55.990Z,126.83
2018-12-06T17:50:24.493Z,127.87
2018-12-06T17:52:53.006Z,144.03
2018-12-06T17:55:23.003Z,156.97
2018-12-06T17:57:51.522Z,161.60
2018-12-06T18:00:20.024Z,239.47
2018-12-06T18:02:48.559Z,256.23
2018-12-06T18:05:17.192Z,242.07
2018-12-06T18:07:45.740Z,220.87
2018-12-06T18:10:14.559Z,228.60
2018-12-06T18:12:43.032Z,227.27
2018-12-06T18:15:11.758Z,237.73
2018-12-06T18:17:40.380Z,194.47
2018-12-06T18:20:09.501Z,165.23
2018-12-06T18:22:37.997Z,129.53
2018-12-06T18:25:07.160Z,118.10
2018-12-06T18:27:35.922Z,128.30
2018-12-06T18:30:06.377Z,129.87
2018-12-06T18:32:34.935Z,135.30
2018-12-06T18:35:04.537Z,145.33
2018-12-06T18:37:32.989Z,157.70
2018-12-06T18:40:01.445Z,186.90
2018-12-06T18:42:30.045Z,205.77
2018-12-06T18:44:58.516Z,203.03
2018-12-06T18:47:27.035Z,196.50
2018-12-06T18:49:55.820Z,179.80
2018-12-06T18:52:25.019Z,170.63
2018-12-06T18:54:53.502Z,181.97
2018-12-06T18:57:22.064Z,172.20
2018-12-06T18:59:50.818Z,166.20
2018-12-06T19:02:19.659Z,175.40
2018-12-06T19:04:48.307Z,209.83
2018-12-06T19:07:16.879Z,184.70
2018-12-06T19:09:46.532Z,179.13
2018-12-06T19:12:15.323Z,169.57
2018-12-06T19:14:44.159Z,148.90
2018-12-06T19:17:12.743Z,133.07
2018-12-06T19:19:41.683Z,122.43
2018-12-06T19:22:10.369Z,120.33
2018-12-06T19:24:38.878Z,121.30
2018-12-06T19:27:07.435Z,113.47
2018-12-06T19:29:36.426Z,116.73
2018-12-06T19:32:05.573Z,96.93
2018-12-06T19:34:34.534Z,89.43
2018-12-06T19:37:03.137Z,97.43
2018-12-06T19:39:31.683Z,89.73
2018-12-06T19:42:00.248Z,85.83
2018-12-06T19:44:28.744Z,86.63
2018-12-06T19:46:57.214Z,92.50
2018-12-06T19:49:25.877Z,83.80
2018-12-06T19:51:54.552Z,98.07
2018-12-06T19:54:23.140Z,93.60
2018-12-06T19:56:52.077Z,94.53
2018-12-06T19:59:20.673Z,90.47
2018-12-06T20:01:49.409Z,104.03
2018-12-06T20:04:17.954Z,99.07
2018-12-06T20:06:46.491Z,93.90
2018-12-06T20:09:15.051Z,96.10
2018-12-06T20:11:43.594Z,94.40
2018-12-06T20:14:12.065Z,109.10
2018-12-06T20:16:40.796Z,111.13
2018-12-06T20:19:09.359Z,112.57
2018-12-06T20:21:38.325Z,107.87
2018-12-06T20:24:07.190Z,107.17
2018-12-06T20:26:35.997Z,101.53
2018-12-06T20:29:04.593Z,109.27
2018-12-06T20:31:33.375Z,153.13
2018-12-06T20:34:02.161Z,192.53
2018-12-06T20:36:30.779Z,217.10
2018-12-06T20:38:59.316Z,215.77
2018-12-06T20:41:27.796Z,218.43
2018-12-06T20:43:56.714Z,209.77
2018-12-06T20:46:25.316Z,204.27
2018-12-06T20:48:53.881Z,191.23
2018-12-06T20:51:22.376Z,166.17
2018-12-06T20:53:50.900Z,159.53
2018-12-06T20:56:19.499Z,129.53
2018-12-06T20:58:48.273Z,153.30
2018-12-06T21:01:16.841Z,134.00
2018-12-06T21:03:45.562Z,134.03
2018-12-06T21:06:14.063Z,120.80
2018-12-06T21:08:42.546Z,117.87
2018-12-06T21:11:11.068Z,114.43
2018-12-06T21:13:39.795Z,116.70
2018-12-06T21:16:08.325Z,122.10
2018-12-06T21:18:36.863Z,117.43
2018-12-06T21:21:05.589Z,121.73
2018-12-06T21:23:34.195Z,108.47
2018-12-06T21:26:03.029Z,111.40
2018-12-06T21:28:32.164Z,126.67
2018-12-06T21:31:00.901Z,124.53
2018-12-06T21:33:29.435Z,121.07
2018-12-06T21:35:58.056Z,129.83
2018-12-06T21:38:26.620Z,129.13
2018-12-06T21:40:55.200Z,117.90
2018-12-06T21:43:23.817Z,122.77
2018-12-06T21:45:52.377Z,134.33
2018-12-06T21:48:20.960Z,129.97
2018-12-06T21:50:49.477Z,128.63
2018-12-06T21:53:18.909Z,129.10
2018-12-06T21:55:47.980Z,137.40
2018-12-06T21:58:16.616Z,135.47
2018-12-06T22:00:45.250Z,150.67
2018-12-06T22:03:13.783Z,157.00
2018-12-06T22:05:42.275Z,165.83
2018-12-06T22:08:10.811Z,170.27
2018-12-06T22:10:39.340Z,173.87
2018-12-06T22:13:07.884Z,168.03
2018-12-06T22:15:36.512Z,166.70
2018-12-06T22:18:05.146Z,167.30
2018-12-06T22:20:33.744Z,164.63
2018-12-06T22:23:02.372Z,165.83
2018-12-06T22:25:31.122Z,164.97
2018-12-06T22:27:59.802Z,247.37
2018-12-06T22:30:28.549Z,205.23
2018-12-06T22:32:57.167Z,217.43
2018-12-06T22:35:26.512Z,265.27
2018-12-06T22:37:55.052Z,303.10
2018-12-06T22:40:23.577Z,304.87
2018-12-06T22:42:52.093Z,313.43
2018-12-06T22:46:26.941Z,324.07
2018-12-06T22:48:55.812Z,340.67
2018-12-06T22:51:24.623Z,340.00
2018-12-06T22:53:53.303Z,295.67
2018-12-06T22:56:21.787Z,302.83
2018-12-06T22:58:50.299Z,292.30
2018-12-06T23:01:23.267Z,262.47
2018-12-06T23:03:51.800Z,253.40
2018-12-06T23:06:20.489Z,242.20
2018-12-06T23:08:49.012Z,236.40
2018-12-06T23:11:17.719Z,242.83
2018-12-06T23:13:46.357Z,249.07
2018-12-06T23:16:14.863Z,230.33
2018-12-06T23:18:43.399Z,233.13
2018-12-06T23:21:11.896Z,228.77
2018-12-06T23:23:40.408Z,234.43
2018-12-06T23:26:08.919Z,236.40
2018-12-06T23:28:37.415Z,245.73
2018-12-06T23:31:05.929Z,243.77
2018-12-06T23:33:34.426Z,231.13
2018-12-06T23:36:02.904Z,230.83
2018-12-06T23:38:31.527Z,230.80
2018-12-06T23:41:00.151Z,237.17
2018-12-06T23:43:28.696Z,233.40
2018-12-06T23:45:57.208Z,236.73
2018-12-06T23:48:25.828Z,230.30
2018-12-06T23:51:01.365Z,233.47
2018-12-06T23:53:29.952Z,263.77
2018-12-06T23:55:58.606Z,262.03
2018-12-06T23:58:27.125Z,249.53
